Time;durP1;ratioP1;P1;durP2;ratioP2;P2;SDS_P1;SDS_P2;PMS_P1;PMS_P2;Temp;Humidity;BMP_temperature;BMP_pressure;BME280_temperature;BME280_humidity;BME280_pressure;Samples;Min_cycle;Max_cycle;Signal;HPM_P1;HPM_P2
2021/12/30 16:55:24;;;;;;;7.90;5.00;;;;;;;12.15;75.95;101418.88;5150559;23;20871;-90
2021/12/30 16:57:55;;;;;;;6.20;3.75;;;;;;;12.20;76.13;101422.25;5055128;28;20090;-90
2021/12/30 17:00:24;;;;;;;5.07;2.90;;;;;;;12.22;76.12;101429.16;5029504;28;20485;-91
2021/12/30 17:02:50;;;;;;;3.45;2.33;;;;;;;12.25;76.02;101425.63;5047397;28;20119;-91
2021/12/30 17:05:18;;;;;;;5.78;2.10;;;;;;;12.20;76.19;101425.72;5033862;28;20187;-84
2021/12/30 17:07:45;;;;;;;1.80;1.20;;;;;;;12.20;75.74;101430.94;5019360;28;20071;-84
2021/12/30 17:10:12;;;;;;;3.20;1.45;;;;;;;12.29;75.54;101427.31;5040366;28;20814;-85
2021/12/30 17:12:38;;;;;;;2.50;1.10;;;;;;;12.25;75.90;101438.66;5027247;28;20071;-85
2021/12/30 17:15:04;;;;;;;2.88;1.45;;;;;;;12.25;75.96;101430.84;5043627;28;20086;-85
2021/12/30 17:17:30;;;;;;;3.70;1.25;;;;;;;12.28;75.52;101439.47;5028300;28;20075;-86
2021/12/30 17:20:03;;;;;;;1.70;1.10;;;;;;;12.23;76.48;101433.50;5038913;28;20114;-85
2021/12/30 17:22:28;;;;;;;1.30;0.80;;;;;;;12.28;76.27;101443.81;5040235;28;20581;-90
2021/12/30 17:24:54;;;;;;;2.75;0.85;;;;;;;12.36;75.55;101447.16;5001259;28;20152;-84
2021/12/30 17:27:19;;;;;;;1.20;0.90;;;;;;;12.25;76.21;101449.06;5022512;28;20575;-86
2021/12/30 17:29:45;;;;;;;1.33;0.57;;;;;;;12.33;75.90;101445.47;5023915;28;20112;-85
2021/12/30 17:32:10;;;;;;;2.88;0.70;;;;;;;12.36;75.50;101447.16;5026022;28;20037;-85
2021/12/30 17:34:36;;;;;;;2.33;0.90;;;;;;;12.33;75.99;101448.09;5017635;28;20033;-90
2021/12/30 17:37:02;;;;;;;2.72;0.80;;;;;;;12.27;75.99;101444.72;5041229;28;20037;-89
2021/12/30 17:39:29;;;;;;;2.38;0.82;;;;;;;12.25;76.81;101449.94;5003583;28;20513;-89
2021/12/30 17:41:56;;;;;;;2.75;0.90;;;;;;;12.31;76.15;101451.56;5025132;28;20048;-85
2021/12/30 17:44:21;;;;;;;2.38;0.70;;;;;;;12.27;76.14;101448.19;5024346;28;20041;-85
2021/12/30 17:46:47;;;;;;;4.13;0.70;;;;;;;12.27;76.37;101448.19;5025715;28;20037;-85
2021/12/30 17:49:13;;;;;;;1.40;0.75;;;;;;;12.29;76.26;101441.19;5040851;28;20725;-85
2021/12/30 17:51:38;;;;;;;6.13;2.70;;;;;;;12.25;76.06;101442.13;5024784;28;20036;-85
2021/12/30 17:54:07;;;;;;;5.03;1.50;;;;;;;12.25;76.63;101438.66;5029930;28;20063;-84
2021/12/30 17:56:33;;;;;;;1.52;1.10;;;;;;;12.16;77.10;101437.06;5023443;28;20506;-85
2021/12/30 17:58:58;;;;;;;2.45;1.20;;;;;;;12.22;76.47;101436.97;5022289;28;20043;-86
2021/12/30 18:01:24;;;;;;;1.92;0.75;;;;;;;12.16;76.50;101431.00;5011617;28;20047;-85
2021/12/30 18:03:49;;;;;;;1.55;0.90;;;;;;;12.24;76.58;101429.16;5033703;28;20171;-84
2021/12/30 18:06:15;;;;;;;3.55;1.23;;;;;;;12.32;75.79;101433.34;5021299;28;20121;-86
2021/12/30 18:08:41;;;;;;;3.40;1.25;;;;;;;12.23;76.22;101430.88;5005967;28;20025;-85
2021/12/30 18:11:08;;;;;;;2.30;1.40;;;;;;;12.28;76.24;101434.25;5044068;28;20087;-85
2021/12/30 18:13:42;;;;;;;3.08;1.10;;;;;;;12.23;76.97;101443.03;5041910;28;20565;-85
2021/12/30 18:16:08;;;;;;;3.97;1.40;;;;;;;12.27;76.03;101445.59;5006446;28;20756;-85
2021/12/30 18:18:34;;;;;;;2.38;1.25;;;;;;;12.30;75.92;101449.88;5019171;28;20037;-84
2021/12/30 18:21:00;;;;;;;2.45;1.20;;;;;;;12.21;75.97;101445.69;5008583;28;20032;-85
2021/12/30 18:23:26;;;;;;;5.55;1.70;;;;;;;12.23;76.30;101448.25;5038197;28;20036;-86
2021/12/30 18:25:52;;;;;;;4.85;1.40;;;;;;;12.28;75.79;101446.41;5022717;28;20037;-85
2021/12/30 18:28:18;;;;;;;2.30;0.90;;;;;;;12.32;75.73;101448.97;5018621;28;20120;-85
2021/12/30 18:30:44;;;;;;;1.42;1.20;;;;;;;12.26;76.58;101450.81;5041542;28;20120;-86
2021/12/30 18:33:10;;;;;;;2.35;1.20;;;;;;;12.25;76.50;101451.69;4994346;28;20390;-85
2021/12/30 18:35:35;;;;;;;2.85;1.10;;;;;;;12.21;76.41;101460.44;5031840;28;20449;-84
2021/12/30 18:38:01;;;;;;;1.95;1.30;;;;;;;12.24;76.30;101453.44;5021905;28;20045;-84
2021/12/30 18:40:29;;;;;;;2.67;1.88;;;;;;;12.18;76.20;101447.47;5035841;28;20049;-84
2021/12/30 18:42:55;;;;;;;3.83;1.45;;;;;;;12.22;76.27;101449.13;5036564;28;20071;-89
2021/12/30 18:45:21;;;;;;;4.05;1.48;;;;;;;12.22;76.28;101451.72;5005394;28;20068;-89
2021/12/30 18:47:47;;;;;;;2.00;1.27;;;;;;;12.22;76.44;101446.53;5042215;28;20024;-89
2021/12/30 18:50:16;;;;;;;2.67;1.77;;;;;;;12.16;76.24;101449.22;5021685;28;20029;-89
2021/12/30 18:52:43;;;;;;;2.45;1.05;;;;;;;12.09;76.75;101451.97;4994060;28;20028;-89
2021/12/30 18:55:15;;;;;;;3.65;1.40;;;;;;;12.14;76.73;101454.47;5008352;28;20052;-89
2021/12/30 18:57:43;;;;;;;3.88;1.30;;;;;;;12.19;75.83;101454.38;5028199;28;20033;-90
2021/12/30 19:00:14;;;;;;;4.60;1.50;;;;;;;12.17;76.34;101448.34;5035323;28;20106;-85
2021/12/30 19:02:40;;;;;;;8.98;3.97;;;;;;;12.24;75.85;101445.63;5048682;28;20040;-86
2021/12/30 19:05:21;;;;;;;8.82;4.03;;;;;;;12.22;76.12;101455.19;5028518;28;20041;-86
2021/12/30 19:07:47;;;;;;;7.18;2.78;;;;;;;12.15;76.24;101445.78;5006857;28;20044;-86
2021/12/30 19:10:14;;;;;;;3.80;2.45;;;;;;;12.08;76.62;101451.97;5012875;28;20056;-85
2021/12/30 19:12:45;;;;;;;6.45;3.50;;;;;;;12.07;77.10;101453.72;5045683;28;20766;-85
2021/12/30 19:15:29;;;;;;;11.25;5.40;;;;;;;12.04;76.47;101464.19;5030865;28;20688;-86
2021/12/30 19:17:55;;;;;;;9.73;5.47;;;;;;;12.14;76.67;101464.91;5032111;28;20120;-85
2021/12/30 19:20:22;;;;;;;9.32;4.32;;;;;;;12.20;76.14;101462.19;5029418;28;20115;-86
2021/12/30 22:13:02;;;;;;;0.70;0.50;;;;;;;12.43;75.40;101611.19;5068328;28;20777;-86
2021/12/30 22:15:57;;;;;;;2.28;0.50;;;;;;;12.37;76.62;101610.41;5002036;28;20045;-85
2021/12/30 22:18:42;;;;;;;2.97;1.13;;;;;;;12.31;76.71;101607.88;5014786;28;20034;-85
2021/12/30 22:21:44;;;;;;;1.03;0.70;;;;;;;12.34;76.57;101618.25;5021497;28;20060;-86
2021/12/30 22:24:56;;;;;;;0.73;0.47;;;;;;;12.33;76.51;101606.16;5006003;28;20269;-90
2021/12/30 22:27:40;;;;;;;8.68;0.85;;;;;;;12.33;76.31;101612.22;5004018;28;20034;-91
2021/12/30 22:30:08;;;;;;;3.83;0.63;;;;;;;12.34;76.45;101610.44;4984025;28;20626;-90
2021/12/30 22:32:34;;;;;;;0.70;0.50;;;;;;;12.28;76.14;101607.94;4985346;28;20291;-90
2021/12/30 22:35:00;;;;;;;2.30;0.70;;;;;;;12.28;75.90;101610.53;5244974;22;20049;-86
2021/12/30 22:37:45;;;;;;;0.60;0.50;;;;;;;12.36;75.87;101612.19;5012216;28;20033;-90
2021/12/30 22:40:27;;;;;;;1.13;0.50;;;;;;;12.33;75.98;101613.97;5016549;28;20381;-90
2021/12/30 22:42:53;;;;;;;1.23;0.77;;;;;;;12.35;75.73;101606.97;5021662;28;20491;-90
2021/12/30 22:45:59;;;;;;;1.38;0.70;;;;;;;12.31;76.17;101611.34;5022751;28;20036;-86
2021/12/30 22:48:26;;;;;;;2.20;0.60;;;;;;;12.26;76.70;101613.19;4980111;28;20751;-86
2021/12/30 22:51:12;;;;;;;4.13;0.70;;;;;;;12.22;76.83;101608.03;5008637;28;20041;-86
2021/12/30 22:53:39;;;;;;;2.83;0.80;;;;;;;12.14;76.92;101605.53;4989347;28;20041;-85
2021/12/30 22:56:43;;;;;;;2.15;0.60;;;;;;;12.17;77.12;101597.69;4986370;28;20178;-89
2021/12/30 23:03:07;;;;;;;2.05;0.70;;;;;;;12.20;76.89;101589.81;4970628;28;20530;-86
2021/12/30 23:05:49;;;;;;;1.73;0.77;;;;;;;12.18;76.52;101582.91;4970236;28;20062;-86
2021/12/30 23:08:16;;;;;;;0.88;0.50;;;;;;;12.13;76.94;101589.03;4968938;28;20038;-86
2021/12/30 23:10:49;;;;;;;2.03;0.85;;;;;;;12.13;76.90;101593.38;4991949;28;20068;-86
2021/12/30 23:13:37;;;;;;;1.67;0.70;;;;;;;12.15;76.19;101599.47;5001136;28;20042;-86
2021/12/30 23:16:05;;;;;;;1.25;0.70;;;;;;;12.17;76.07;101605.50;4990710;28;20072;-86
2021/12/30 23:22:54;;;;;;;0.73;0.60;;;;;;;12.11;76.76;101608.19;4942559;28;20093;-86
2021/12/30 23:26:10;;;;;;;1.73;0.60;;;;;;;12.10;76.82;101614.25;4928461;29;20168;-90
2021/12/30 23:32:54;;;;;;;1.23;0.60;;;;;;;12.03;77.43;101617.84;4939871;28;20495;-86
2021/12/30 23:35:19;;;;;;;3.22;0.75;;;;;;;12.00;77.47;101612.69;5226414;23;20391;-86
2021/12/30 23:37:45;;;;;;;1.83;0.77;;;;;;;12.06;77.13;101607.41;5011939;28;20130;-90
2021/12/30 23:43:38;;;;;;;2.70;0.75;;;;;;;12.18;76.61;101577.72;5088775;22;20036;-86
2021/12/30 23:49:26;;;;;;;0.80;0.57;;;;;;;12.22;75.87;101579.38;5025586;28;20063;-90
2021/12/30 23:51:53;;;;;;;4.35;0.90;;;;;;;12.20;76.30;101578.53;5041253;28;20549;-86
2021/12/30 23:55:09;;;;;;;1.63;0.80;;;;;;;12.19;76.05;101580.28;5030799;28;20040;-90
2021/12/30 23:57:44;;;;;;;1.45;0.60;;;;;;;12.09;76.49;101576.09;5038002;28;20124;-90
